sensor_id;sensor_type;location;lat;lon;timestamp;temperature;humidity
12761;DHT22;6444;49.742;6.114;2022-10-16T00:00:08;15.60;99.90
12761;DHT22;6444;49.742;6.114;2022-10-16T00:02:35;15.90;99.90
12761;DHT22;6444;49.742;6.114;2022-10-16T00:05:01;15.40;99.90
12761;DHT22;6444;49.742;6.114;2022-10-16T00:07:28;15.00;99.90
12761;DHT22;6444;49.742;6.114;2022-10-16T00:09:54;15.00;99.90
12761;DHT22;6444;49.742;6.114;2022-10-16T00:12:21;15.30;99.90
12761;DHT22;6444;49.742;6.114;2022-10-16T00:14:48;15.30;99.90
12761;DHT22;6444;49.742;6.114;2022-10-16T00:17:14;15.00;99.90
12761;DHT22;6444;49.742;6.114;2022-10-16T00:19:41;15.00;99.90
12761;DHT22;6444;49.742;6.114;2022-10-16T00:22:08;15.30;99.90
12761;DHT22;6444;49.742;6.114;2022-10-16T00:24:34;15.40;99.90
12761;DHT22;6444;49.742;6.114;2022-10-16T00:27:01;15.80;99.90
12761;DHT22;6444;49.742;6.114;2022-10-16T00:29:27;15.70;99.90
12761;DHT22;6444;49.742;6.114;2022-10-16T00:31:54;15.60;99.90
12761;DHT22;6444;49.742;6.114;2022-10-16T00:34:21;15.50;99.90
12761;DHT22;6444;49.742;6.114;2022-10-16T00:36:48;15.40;99.90
12761;DHT22;6444;49.742;6.114;2022-10-16T00:39:15;15.70;99.90
12761;DHT22;6444;49.742;6.114;2022-10-16T00:41:41;15.70;99.90
12761;DHT22;6444;49.742;6.114;2022-10-16T00:47:12;15.50;99.90
12761;DHT22;6444;49.742;6.114;2022-10-16T00:49:35;15.20;99.90
12761;DHT22;6444;49.742;6.114;2022-10-16T00:52:02;15.50;99.90
12761;DHT22;6444;49.742;6.114;2022-10-16T00:54:30;15.60;99.90
12761;DHT22;6444;49.742;6.114;2022-10-16T00:56:56;15.40;99.90
12761;DHT22;6444;49.742;6.114;2022-10-16T00:59:35;15.80;99.90
12761;DHT22;6444;49.742;6.114;2022-10-16T01:02:01;16.20;99.90
12761;DHT22;6444;49.742;6.114;2022-10-16T01:04:28;16.10;99.90
12761;DHT22;6444;49.742;6.114;2022-10-16T01:07:18;15.90;99.90
12761;DHT22;6444;49.742;6.114;2022-10-16T01:09:47;15.80;99.90
12761;DHT22;6444;49.742;6.114;2022-10-16T01:12:27;15.60;99.90
12761;DHT22;6444;49.742;6.114;2022-10-16T01:17:34;15.40;99.90
12761;DHT22;6444;49.742;6.114;2022-10-16T01:28:13;15.80;99.90
12761;DHT22;6444;49.742;6.114;2022-10-16T01:30:40;15.40;99.90
12761;DHT22;6444;49.742;6.114;2022-10-16T01:33:17;15.20;99.90
12761;DHT22;6444;49.742;6.114;2022-10-16T01:35:43;15.20;99.90
12761;DHT22;6444;49.742;6.114;2022-10-16T01:38:16;15.30;99.90
12761;DHT22;6444;49.742;6.114;2022-10-16T01:40:42;15.20;99.90
12761;DHT22;6444;49.742;6.114;2022-10-16T01:43:08;15.80;99.90
12761;DHT22;6444;49.742;6.114;2022-10-16T01:45:34;15.70;99.90
12761;DHT22;6444;49.742;6.114;2022-10-16T01:48:02;15.30;99.90
12761;DHT22;6444;49.742;6.114;2022-10-16T01:50:28;15.30;99.90
12761;DHT22;6444;49.742;6.114;2022-10-16T01:52:55;15.40;99.90
12761;DHT22;6444;49.742;6.114;2022-10-16T01:55:27;15.40;99.90
12761;DHT22;6444;49.742;6.114;2022-10-16T01:57:51;15.20;99.90
12761;DHT22;6444;49.742;6.114;2022-10-16T02:00:18;14.80;99.90
12761;DHT22;6444;49.742;6.114;2022-10-16T02:02:45;14.50;99.90
12761;DHT22;6444;49.742;6.114;2022-10-16T02:08:09;14.40;99.90
12761;DHT22;6444;49.742;6.114;2022-10-16T02:10:36;14.40;99.90
12761;DHT22;6444;49.742;6.114;2022-10-16T02:13:04;14.40;99.90
12761;DHT22;6444;49.742;6.114;2022-10-16T02:15:29;14.50;99.90
12761;DHT22;6444;49.742;6.114;2022-10-16T02:17:56;14.40;99.90
12761;DHT22;6444;49.742;6.114;2022-10-16T02:20:25;14.30;99.90
12761;DHT22;6444;49.742;6.114;2022-10-16T02:22:49;14.40;99.90
12761;DHT22;6444;49.742;6.114;2022-10-16T02:28:02;14.70;99.90
12761;DHT22;6444;49.742;6.114;2022-10-16T02:30:34;15.10;99.90
12761;DHT22;6444;49.742;6.114;2022-10-16T02:33:00;15.20;99.90
12761;DHT22;6444;49.742;6.114;2022-10-16T02:35:26;15.10;99.90
12761;DHT22;6444;49.742;6.114;2022-10-16T02:37:53;14.60;99.90
12761;DHT22;6444;49.742;6.114;2022-10-16T02:40:20;14.40;99.90
12761;DHT22;6444;49.742;6.114;2022-10-16T02:42:49;14.50;99.90
12761;DHT22;6444;49.742;6.114;2022-10-16T02:45:14;14.70;99.90
12761;DHT22;6444;49.742;6.114;2022-10-16T02:47:40;14.70;99.90
12761;DHT22;6444;49.742;6.114;2022-10-16T02:50:07;14.70;99.90
12761;DHT22;6444;49.742;6.114;2022-10-16T02:52:34;15.30;99.90
12761;DHT22;6444;49.742;6.114;2022-10-16T02:55:01;15.30;99.90
12761;DHT22;6444;49.742;6.114;2022-10-16T02:57:28;15.30;99.90
12761;DHT22;6444;49.742;6.114;2022-10-16T02:59:54;15.30;99.90
12761;DHT22;6444;49.742;6.114;2022-10-16T03:02:22;15.40;99.90
12761;DHT22;6444;49.742;6.114;2022-10-16T03:04:48;15.30;99.90
12761;DHT22;6444;49.742;6.114;2022-10-16T03:07:15;15.20;99.90
12761;DHT22;6444;49.742;6.114;2022-10-16T03:09:41;15.20;99.90
12761;DHT22;6444;49.742;6.114;2022-10-16T03:12:08;15.20;99.90
12761;DHT22;6444;49.742;6.114;2022-10-16T03:14:35;15.60;99.90
12761;DHT22;6444;49.742;6.114;2022-10-16T03:17:02;15.60;99.90
12761;DHT22;6444;49.742;6.114;2022-10-16T03:19:29;15.80;99.90
12761;DHT22;6444;49.742;6.114;2022-10-16T03:21:55;16.10;99.90
12761;DHT22;6444;49.742;6.114;2022-10-16T03:24:22;16.30;99.90
12761;DHT22;6444;49.742;6.114;2022-10-16T03:26:49;16.40;99.90
12761;DHT22;6444;49.742;6.114;2022-10-16T03:29:15;16.30;99.90
12761;DHT22;6444;49.742;6.114;2022-10-16T03:31:42;16.20;99.90
12761;DHT22;6444;49.742;6.114;2022-10-16T03:34:08;15.60;99.90
12761;DHT22;6444;49.742;6.114;2022-10-16T03:36:35;15.30;99.90
12761;DHT22;6444;49.742;6.114;2022-10-16T03:39:02;15.30;99.90
12761;DHT22;6444;49.742;6.114;2022-10-16T03:41:28;15.50;99.90
12761;DHT22;6444;49.742;6.114;2022-10-16T03:43:55;15.70;99.90
12761;DHT22;6444;49.742;6.114;2022-10-16T03:46:22;16.20;99.90
12761;DHT22;6444;49.742;6.114;2022-10-16T03:48:48;16.40;99.90
12761;DHT22;6444;49.742;6.114;2022-10-16T03:51:15;16.60;99.90
12761;DHT22;6444;49.742;6.114;2022-10-16T03:53:41;16.90;99.90
12761;DHT22;6444;49.742;6.114;2022-10-16T03:56:08;16.50;99.90
12761;DHT22;6444;49.742;6.114;2022-10-16T03:58:35;16.20;99.90
12761;DHT22;6444;49.742;6.114;2022-10-16T04:01:01;16.20;99.90
12761;DHT22;6444;49.742;6.114;2022-10-16T04:03:28;16.00;99.90
12761;DHT22;6444;49.742;6.114;2022-10-16T04:05:55;16.10;99.90
12761;DHT22;6444;49.742;6.114;2022-10-16T04:08:21;15.60;99.90
12761;DHT22;6444;49.742;6.114;2022-10-16T04:10:48;15.00;99.90
12761;DHT22;6444;49.742;6.114;2022-10-16T04:13:14;14.70;99.90
12761;DHT22;6444;49.742;6.114;2022-10-16T04:15:42;14.60;99.90
12761;DHT22;6444;49.742;6.114;2022-10-16T04:18:09;14.60;99.90
12761;DHT22;6444;49.742;6.114;2022-10-16T04:20:35;14.60;99.90
12761;DHT22;6444;49.742;6.114;2022-10-16T04:23:02;14.40;99.90
12761;DHT22;6444;49.742;6.114;2022-10-16T04:25:28;14.40;99.90
12761;DHT22;6444;49.742;6.114;2022-10-16T04:27:55;14.20;99.90
12761;DHT22;6444;49.742;6.114;2022-10-16T04:30:22;13.90;99.90
12761;DHT22;6444;49.742;6.114;2022-10-16T04:32:49;13.90;99.90
12761;DHT22;6444;49.742;6.114;2022-10-16T04:35:19;14.00;99.90
12761;DHT22;6444;49.742;6.114;2022-10-16T04:37:42;14.10;99.90
12761;DHT22;6444;49.742;6.114;2022-10-16T04:40:09;14.30;99.90
12761;DHT22;6444;49.742;6.114;2022-10-16T04:42:36;14.60;99.90
12761;DHT22;6444;49.742;6.114;2022-10-16T04:45:02;14.50;99.90
12761;DHT22;6444;49.742;6.114;2022-10-16T04:47:29;14.40;99.90
12761;DHT22;6444;49.742;6.114;2022-10-16T04:49:55;14.30;99.90
12761;DHT22;6444;49.742;6.114;2022-10-16T04:52:22;14.10;99.90
12761;DHT22;6444;49.742;6.114;2022-10-16T04:54:49;14.00;99.90
12761;DHT22;6444;49.742;6.114;2022-10-16T04:57:15;14.10;99.90
12761;DHT22;6444;49.742;6.114;2022-10-16T04:59:42;14.20;99.90
12761;DHT22;6444;49.742;6.114;2022-10-16T05:02:09;14.20;99.90
12761;DHT22;6444;49.742;6.114;2022-10-16T05:04:36;14.30;99.90
12761;DHT22;6444;49.742;6.114;2022-10-16T05:07:03;14.30;99.90
12761;DHT22;6444;49.742;6.114;2022-10-16T05:09:29;14.60;99.90
12761;DHT22;6444;49.742;6.114;2022-10-16T05:11:56;14.70;99.90
12761;DHT22;6444;49.742;6.114;2022-10-16T05:14:22;14.70;99.90
12761;DHT22;6444;49.742;6.114;2022-10-16T05:16:49;14.50;99.90
12761;DHT22;6444;49.742;6.114;2022-10-16T05:19:16;14.30;99.90
12761;DHT22;6444;49.742;6.114;2022-10-16T05:21:42;14.10;99.90
12761;DHT22;6444;49.742;6.114;2022-10-16T05:24:09;14.10;99.90
12761;DHT22;6444;49.742;6.114;2022-10-16T05:26:36;14.00;99.90
12761;DHT22;6444;49.742;6.114;2022-10-16T05:29:02;14.00;99.90
12761;DHT22;6444;49.742;6.114;2022-10-16T05:31:29;14.10;99.90
12761;DHT22;6444;49.742;6.114;2022-10-16T05:33:59;14.00;99.90
12761;DHT22;6444;49.742;6.114;2022-10-16T05:36:25;13.90;99.90
12761;DHT22;6444;49.742;6.114;2022-10-16T05:38:52;13.90;99.90
12761;DHT22;6444;49.742;6.114;2022-10-16T05:41:19;14.00;99.90
12761;DHT22;6444;49.742;6.114;2022-10-16T05:43:48;13.80;99.90
12761;DHT22;6444;49.742;6.114;2022-10-16T05:46:14;13.70;99.90
12761;DHT22;6444;49.742;6.114;2022-10-16T05:48:41;13.80;99.90
12761;DHT22;6444;49.742;6.114;2022-10-16T05:51:09;13.80;99.90
12761;DHT22;6444;49.742;6.114;2022-10-16T05:53:35;13.80;99.90
12761;DHT22;6444;49.742;6.114;2022-10-16T05:56:01;13.90;99.90
12761;DHT22;6444;49.742;6.114;2022-10-16T05:58:31;13.90;99.90
12761;DHT22;6444;49.742;6.114;2022-10-16T06:00:58;13.90;99.90
12761;DHT22;6444;49.742;6.114;2022-10-16T06:03:24;14.20;99.90
12761;DHT22;6444;49.742;6.114;2022-10-16T06:05:50;14.40;99.90
12761;DHT22;6444;49.742;6.114;2022-10-16T06:08:17;14.70;99.90
12761;DHT22;6444;49.742;6.114;2022-10-16T06:10:44;14.90;99.90
12761;DHT22;6444;49.742;6.114;2022-10-16T06:13:10;14.90;99.90
12761;DHT22;6444;49.742;6.114;2022-10-16T06:15:37;14.70;99.90
12761;DHT22;6444;49.742;6.114;2022-10-16T06:18:03;14.70;99.90
12761;DHT22;6444;49.742;6.114;2022-10-16T06:20:31;14.40;99.90
12761;DHT22;6444;49.742;6.114;2022-10-16T06:22:57;14.40;99.90
12761;DHT22;6444;49.742;6.114;2022-10-16T06:25:24;14.90;99.90
12761;DHT22;6444;49.742;6.114;2022-10-16T06:27:51;15.30;99.90
12761;DHT22;6444;49.742;6.114;2022-10-16T06:30:17;15.10;99.90
12761;DHT22;6444;49.742;6.114;2022-10-16T06:32:44;14.80;99.90
12761;DHT22;6444;49.742;6.114;2022-10-16T06:35:11;14.90;99.90
12761;DHT22;6444;49.742;6.114;2022-10-16T06:37:37;15.00;99.90
12761;DHT22;6444;49.742;6.114;2022-10-16T06:40:04;15.00;99.90
12761;DHT22;6444;49.742;6.114;2022-10-16T06:42:31;14.80;99.90
12761;DHT22;6444;49.742;6.114;2022-10-16T06:44:57;14.70;99.90
12761;DHT22;6444;49.742;6.114;2022-10-16T06:47:24;14.60;99.90
12761;DHT22;6444;49.742;6.114;2022-10-16T06:49:51;14.60;99.90
12761;DHT22;6444;49.742;6.114;2022-10-16T06:52:18;14.70;99.90
12761;DHT22;6444;49.742;6.114;2022-10-16T06:54:45;14.60;99.90
12761;DHT22;6444;49.742;6.114;2022-10-16T06:57:11;14.80;99.90
12761;DHT22;6444;49.742;6.114;2022-10-16T06:59:38;14.60;99.90
12761;DHT22;6444;49.742;6.114;2022-10-16T07:02:04;14.60;99.90
12761;DHT22;6444;49.742;6.114;2022-10-16T07:04:31;14.50;99.90
12761;DHT22;6444;49.742;6.114;2022-10-16T07:06:59;14.80;99.90
12761;DHT22;6444;49.742;6.114;2022-10-16T07:09:24;15.10;99.90
12761;DHT22;6444;49.742;6.114;2022-10-16T07:11:51;15.30;99.90
12761;DHT22;6444;49.742;6.114;2022-10-16T07:14:18;15.70;99.90
12761;DHT22;6444;49.742;6.114;2022-10-16T07:16:44;16.10;99.90
12761;DHT22;6444;49.742;6.114;2022-10-16T07:19:11;16.50;99.90
12761;DHT22;6444;49.742;6.114;2022-10-16T07:21:37;16.80;99.90
12761;DHT22;6444;49.742;6.114;2022-10-16T07:24:11;16.80;99.90
12761;DHT22;6444;49.742;6.114;2022-10-16T07:26:34;16.10;99.90
12761;DHT22;6444;49.742;6.114;2022-10-16T07:29:00;16.20;99.90
12761;DHT22;6444;49.742;6.114;2022-10-16T07:31:27;16.30;99.90
12761;DHT22;6444;49.742;6.114;2022-10-16T07:33:54;16.70;99.90
12761;DHT22;6444;49.742;6.114;2022-10-16T07:36:20;16.50;99.90
12761;DHT22;6444;49.742;6.114;2022-10-16T07:38:47;16.20;99.90
12761;DHT22;6444;49.742;6.114;2022-10-16T07:41:14;16.40;99.90
12761;DHT22;6444;49.742;6.114;2022-10-16T07:43:45;16.70;99.90
12761;DHT22;6444;49.742;6.114;2022-10-16T07:46:07;16.60;99.90
12761;DHT22;6444;49.742;6.114;2022-10-16T07:48:34;16.60;99.90
12761;DHT22;6444;49.742;6.114;2022-10-16T07:51:02;16.70;99.90
12761;DHT22;6444;49.742;6.114;2022-10-16T07:53:27;16.90;99.90
12761;DHT22;6444;49.742;6.114;2022-10-16T07:56:01;16.80;99.90
12761;DHT22;6444;49.742;6.114;2022-10-16T07:58:30;17.40;99.90
12761;DHT22;6444;49.742;6.114;2022-10-16T08:00:57;17.30;99.90
12761;DHT22;6444;49.742;6.114;2022-10-16T08:03:23;17.60;99.90
12761;DHT22;6444;49.742;6.114;2022-10-16T08:05:50;17.30;99.90
12761;DHT22;6444;49.742;6.114;2022-10-16T08:08:17;17.00;99.90
12761;DHT22;6444;49.742;6.114;2022-10-16T08:10:43;16.70;99.90
12761;DHT22;6444;49.742;6.114;2022-10-16T08:13:10;16.70;99.90
12761;DHT22;6444;49.742;6.114;2022-10-16T08:15:36;17.20;99.90
12761;DHT22;6444;49.742;6.114;2022-10-16T08:18:04;17.20;99.90
12761;DHT22;6444;49.742;6.114;2022-10-16T08:20:30;17.40;99.90
12761;DHT22;6444;49.742;6.114;2022-10-16T08:22:57;17.00;99.90
12761;DHT22;6444;49.742;6.114;2022-10-16T08:25:24;16.90;99.90
12761;DHT22;6444;49.742;6.114;2022-10-16T08:27:50;17.00;99.90
12761;DHT22;6444;49.742;6.114;2022-10-16T08:30:18;17.00;99.90
12761;DHT22;6444;49.742;6.114;2022-10-16T08:32:44;17.10;99.90
12761;DHT22;6444;49.742;6.114;2022-10-16T08:35:11;17.10;99.90
12761;DHT22;6444;49.742;6.114;2022-10-16T08:37:38;17.20;99.90
12761;DHT22;6444;49.742;6.114;2022-10-16T08:40:05;17.20;99.90
12761;DHT22;6444;49.742;6.114;2022-10-16T08:45:19;17.20;99.90
12761;DHT22;6444;49.742;6.114;2022-10-16T08:47:47;17.30;99.90
12761;DHT22;6444;49.742;6.114;2022-10-16T08:50:12;17.20;99.90
12761;DHT22;6444;49.742;6.114;2022-10-16T08:52:42;17.50;99.90
12761;DHT22;6444;49.742;6.114;2022-10-16T08:57:56;17.80;99.90
12761;DHT22;6444;49.742;6.114;2022-10-16T09:00:22;17.70;99.90
12761;DHT22;6444;49.742;6.114;2022-10-16T09:02:58;18.20;99.90
12761;DHT22;6444;49.742;6.114;2022-10-16T09:08:19;18.00;99.90
12761;DHT22;6444;49.742;6.114;2022-10-16T09:13:26;18.10;99.90
12761;DHT22;6444;49.742;6.114;2022-10-16T09:18:45;19.60;99.90
12761;DHT22;6444;49.742;6.114;2022-10-16T09:23:40;18.90;99.90
12761;DHT22;6444;49.742;6.114;2022-10-16T09:26:09;18.80;99.90
12761;DHT22;6444;49.742;6.114;2022-10-16T09:28:34;19.20;99.90
12761;DHT22;6444;49.742;6.114;2022-10-16T09:31:01;19.20;99.90
12761;DHT22;6444;49.742;6.114;2022-10-16T09:33:33;19.10;99.90
12761;DHT22;6444;49.742;6.114;2022-10-16T09:35:57;18.40;99.90
12761;DHT22;6444;49.742;6.114;2022-10-16T09:38:33;18.20;99.90
12761;DHT22;6444;49.742;6.114;2022-10-16T09:40:57;18.80;99.90
12761;DHT22;6444;49.742;6.114;2022-10-16T09:46:06;19.60;99.90
12761;DHT22;6444;49.742;6.114;2022-10-16T09:50:59;19.20;99.90
12761;DHT22;6444;49.742;6.114;2022-10-16T09:53:26;19.20;99.90
12761;DHT22;6444;49.742;6.114;2022-10-16T09:55:52;19.20;99.90
12761;DHT22;6444;49.742;6.114;2022-10-16T09:58:20;19.80;99.90
12761;DHT22;6444;49.742;6.114;2022-10-16T10:00:52;20.60;99.90
12761;DHT22;6444;49.742;6.114;2022-10-16T10:03:37;21.40;99.90
12761;DHT22;6444;49.742;6.114;2022-10-16T10:05:47;20.80;99.90
12761;DHT22;6444;49.742;6.114;2022-10-16T10:08:14;20.80;99.90
12761;DHT22;6444;49.742;6.114;2022-10-16T10:10:41;21.00;99.90
12761;DHT22;6444;49.742;6.114;2022-10-16T10:13:20;21.00;99.90
12761;DHT22;6444;49.742;6.114;2022-10-16T10:15:46;21.20;99.90
12761;DHT22;6444;49.742;6.114;2022-10-16T10:18:18;21.20;99.90
12761;DHT22;6444;49.742;6.114;2022-10-16T10:20:43;21.10;99.90
12761;DHT22;6444;49.742;6.114;2022-10-16T10:23:26;21.30;99.90
12761;DHT22;6444;49.742;6.114;2022-10-16T10:26:06;21.00;99.90
12761;DHT22;6444;49.742;6.114;2022-10-16T10:37:15;21.00;99.90
12761;DHT22;6444;49.742;6.114;2022-10-16T10:39:37;20.60;99.90
12761;DHT22;6444;49.742;6.114;2022-10-16T10:42:26;21.00;99.90
12761;DHT22;6444;49.742;6.114;2022-10-16T11:06:19;20.10;99.90
12761;DHT22;6444;49.742;6.114;2022-10-16T11:08:36;20.30;99.90
12761;DHT22;6444;49.742;6.114;2022-10-16T11:11:14;20.20;99.90
12761;DHT22;6444;49.742;6.114;2022-10-16T11:15:58;19.20;99.90
12761;DHT22;6444;49.742;6.114;2022-10-16T11:18:30;19.20;99.90
12761;DHT22;6444;49.742;6.114;2022-10-16T11:20:56;18.90;99.90
12761;DHT22;6444;49.742;6.114;2022-10-16T11:23:31;18.80;99.90
12761;DHT22;6444;49.742;6.114;2022-10-16T11:25:58;19.20;99.90
12761;DHT22;6444;49.742;6.114;2022-10-16T11:28:32;19.90;99.90
12761;DHT22;6444;49.742;6.114;2022-10-16T11:31:36;19.70;99.90
12761;DHT22;6444;49.742;6.114;2022-10-16T11:33:45;19.50;99.90
12761;DHT22;6444;49.742;6.114;2022-10-16T11:36:25;19.40;99.90
12761;DHT22;6444;49.742;6.114;2022-10-16T11:41:50;19.20;99.90
12761;DHT22;6444;49.742;6.114;2022-10-16T11:49:36;19.80;99.90
12761;DHT22;6444;49.742;6.114;2022-10-16T11:55:26;21.20;99.90
12761;DHT22;6444;49.742;6.114;2022-10-16T11:57:38;21.40;99.90
12761;DHT22;6444;49.742;6.114;2022-10-16T12:00:05;21.20;99.90
12761;DHT22;6444;49.742;6.114;2022-10-16T12:05:46;20.00;99.90
12761;DHT22;6444;49.742;6.114;2022-10-16T12:08:08;19.70;99.90
12761;DHT22;6444;49.742;6.114;2022-10-16T12:10:34;19.40;99.90
12761;DHT22;6444;49.742;6.114;2022-10-16T12:13:01;19.60;99.90
12761;DHT22;6444;49.742;6.114;2022-10-16T12:15:28;19.90;99.90
12761;DHT22;6444;49.742;6.114;2022-10-16T12:17:55;20.00;99.90
12761;DHT22;6444;49.742;6.114;2022-10-16T12:20:24;20.00;99.90
12761;DHT22;6444;49.742;6.114;2022-10-16T12:22:49;19.80;99.90
12761;DHT22;6444;49.742;6.114;2022-10-16T12:25:33;19.40;99.90
12761;DHT22;6444;49.742;6.114;2022-10-16T12:28:06;19.60;99.90
12761;DHT22;6444;49.742;6.114;2022-10-16T12:30:33;19.60;99.90
12761;DHT22;6444;49.742;6.114;2022-10-16T12:33:03;19.80;99.90
12761;DHT22;6444;49.742;6.114;2022-10-16T12:35:26;19.60;99.90
12761;DHT22;6444;49.742;6.114;2022-10-16T12:37:52;20.60;99.90
12761;DHT22;6444;49.742;6.114;2022-10-16T12:42:48;20.80;99.90
12761;DHT22;6444;49.742;6.114;2022-10-16T12:45:25;21.00;99.90
12761;DHT22;6444;49.742;6.114;2022-10-16T12:47:51;21.40;99.90
12761;DHT22;6444;49.742;6.114;2022-10-16T12:50:24;21.10;99.90
12761;DHT22;6444;49.742;6.114;2022-10-16T12:52:50;20.80;99.90
12761;DHT22;6444;49.742;6.114;2022-10-16T12:55:18;19.40;99.90
12761;DHT22;6444;49.742;6.114;2022-10-16T12:58:09;19.40;99.90
12761;DHT22;6444;49.742;6.114;2022-10-16T13:00:38;19.60;99.90
12761;DHT22;6444;49.742;6.114;2022-10-16T13:06:11;18.70;99.90
12761;DHT22;6444;49.742;6.114;2022-10-16T13:11:26;19.40;99.90
12761;DHT22;6444;49.742;6.114;2022-10-16T13:13:53;19.40;99.90
12761;DHT22;6444;49.742;6.114;2022-10-16T13:16:35;19.60;99.90
12761;DHT22;6444;49.742;6.114;2022-10-16T13:23:59;20.20;99.90
12761;DHT22;6444;49.742;6.114;2022-10-16T13:26:41;20.20;99.90
12761;DHT22;6444;49.742;6.114;2022-10-16T13:29:05;20.60;99.90
12761;DHT22;6444;49.742;6.114;2022-10-16T13:31:31;21.10;99.90
12761;DHT22;6444;49.742;6.114;2022-10-16T13:33:58;21.20;99.90
12761;DHT22;6444;49.742;6.114;2022-10-16T13:36:29;20.80;99.90
12761;DHT22;6444;49.742;6.114;2022-10-16T13:39:34;20.70;99.90
12761;DHT22;6444;49.742;6.114;2022-10-16T13:41:33;20.40;99.90
12761;DHT22;6444;49.742;6.114;2022-10-16T13:43:59;19.80;99.90
12761;DHT22;6444;49.742;6.114;2022-10-16T13:46:26;19.70;99.90
12761;DHT22;6444;49.742;6.114;2022-10-16T13:48:59;20.40;99.90
12761;DHT22;6444;49.742;6.114;2022-10-16T13:51:25;20.70;99.90
12761;DHT22;6444;49.742;6.114;2022-10-16T13:53:52;20.40;99.90
12761;DHT22;6444;49.742;6.114;2022-10-16T13:56:19;20.80;99.90
12761;DHT22;6444;49.742;6.114;2022-10-16T13:58:45;20.70;99.90
12761;DHT22;6444;49.742;6.114;2022-10-16T14:01:22;20.70;99.90
12761;DHT22;6444;49.742;6.114;2022-10-16T14:03:38;20.20;99.90
12761;DHT22;6444;49.742;6.114;2022-10-16T14:06:06;19.70;99.90
12761;DHT22;6444;49.742;6.114;2022-10-16T14:08:32;20.20;99.90
12761;DHT22;6444;49.742;6.114;2022-10-16T14:10:59;20.20;99.90
12761;DHT22;6444;49.742;6.114;2022-10-16T14:15:55;20.80;99.90
12761;DHT22;6444;49.742;6.114;2022-10-16T14:18:22;21.10;99.90
12761;DHT22;6444;49.742;6.114;2022-10-16T14:20:48;21.00;99.90
12761;DHT22;6444;49.742;6.114;2022-10-16T14:23:22;20.70;99.90
12761;DHT22;6444;49.742;6.114;2022-10-16T14:25:47;20.50;99.90
12761;DHT22;6444;49.742;6.114;2022-10-16T14:28:18;20.60;99.90
12761;DHT22;6444;49.742;6.114;2022-10-16T14:30:50;20.60;99.90
12761;DHT22;6444;49.742;6.114;2022-10-16T14:36:04;20.80;99.90
12761;DHT22;6444;49.742;6.114;2022-10-16T14:38:30;20.40;99.90
12761;DHT22;6444;49.742;6.114;2022-10-16T14:40:57;20.50;99.90
12761;DHT22;6444;49.742;6.114;2022-10-16T14:43:29;20.60;99.90
12761;DHT22;6444;49.742;6.114;2022-10-16T14:45:53;21.00;99.90
12761;DHT22;6444;49.742;6.114;2022-10-16T14:48:19;21.30;99.90
12761;DHT22;6444;49.742;6.114;2022-10-16T14:50:46;21.50;99.90
12761;DHT22;6444;49.742;6.114;2022-10-16T14:53:12;20.90;99.90
12761;DHT22;6444;49.742;6.114;2022-10-16T14:55:39;20.80;99.90
12761;DHT22;6444;49.742;6.114;2022-10-16T14:58:07;21.20;99.90
12761;DHT22;6444;49.742;6.114;2022-10-16T15:00:32;21.30;99.90
12761;DHT22;6444;49.742;6.114;2022-10-16T15:02:59;21.50;99.90
12761;DHT22;6444;49.742;6.114;2022-10-16T15:05:26;21.50;99.90
12761;DHT22;6444;49.742;6.114;2022-10-16T15:07:52;22.00;99.90
12761;DHT22;6444;49.742;6.114;2022-10-16T15:10:19;22.40;99.90
12761;DHT22;6444;49.742;6.114;2022-10-16T15:12:45;22.00;99.90
12761;DHT22;6444;49.742;6.114;2022-10-16T15:15:26;21.90;99.90
12761;DHT22;6444;49.742;6.114;2022-10-16T15:17:54;21.90;99.90
12761;DHT22;6444;49.742;6.114;2022-10-16T15:20:24;22.00;99.90
12761;DHT22;6444;49.742;6.114;2022-10-16T15:22:50;21.90;99.90
12761;DHT22;6444;49.742;6.114;2022-10-16T15:25:27;22.20;99.90
12761;DHT22;6444;49.742;6.114;2022-10-16T15:27:52;22.50;99.90
12761;DHT22;6444;49.742;6.114;2022-10-16T15:30:19;22.60;99.90
12761;DHT22;6444;49.742;6.114;2022-10-16T15:32:45;22.80;99.90
12761;DHT22;6444;49.742;6.114;2022-10-16T15:35:12;22.90;99.90
12761;DHT22;6444;49.742;6.114;2022-10-16T15:37:38;23.00;99.90
12761;DHT22;6444;49.742;6.114;2022-10-16T15:40:05;22.90;99.90
12761;DHT22;6444;49.742;6.114;2022-10-16T15:42:32;22.80;99.90
12761;DHT22;6444;49.742;6.114;2022-10-16T15:44:58;22.80;99.90
12761;DHT22;6444;49.742;6.114;2022-10-16T15:47:25;22.80;99.90
12761;DHT22;6444;49.742;6.114;2022-10-16T15:49:52;22.30;99.90
12761;DHT22;6444;49.742;6.114;2022-10-16T15:52:18;22.20;99.90
12761;DHT22;6444;49.742;6.114;2022-10-16T15:54:45;21.90;99.90
12761;DHT22;6444;49.742;6.114;2022-10-16T15:57:12;22.10;99.90
12761;DHT22;6444;49.742;6.114;2022-10-16T15:59:39;22.00;99.90
12761;DHT22;6444;49.742;6.114;2022-10-16T16:02:06;22.00;99.90
12761;DHT22;6444;49.742;6.114;2022-10-16T16:04:32;21.70;99.90
12761;DHT22;6444;49.742;6.114;2022-10-16T16:06:59;21.30;99.90
12761;DHT22;6444;49.742;6.114;2022-10-16T16:09:26;20.70;99.90
12761;DHT22;6444;49.742;6.114;2022-10-16T16:11:53;20.60;99.90
12761;DHT22;6444;49.742;6.114;2022-10-16T16:14:19;20.10;99.90
12761;DHT22;6444;49.742;6.114;2022-10-16T16:16:46;20.40;99.90
12761;DHT22;6444;49.742;6.114;2022-10-16T16:19:13;20.20;99.90
12761;DHT22;6444;49.742;6.114;2022-10-16T16:21:39;20.50;99.90
12761;DHT22;6444;49.742;6.114;2022-10-16T16:24:06;20.50;99.90
12761;DHT22;6444;49.742;6.114;2022-10-16T16:26:33;20.50;99.90
12761;DHT22;6444;49.742;6.114;2022-10-16T16:28:59;20.40;99.90
12761;DHT22;6444;49.742;6.114;2022-10-16T16:31:29;20.10;99.90
12761;DHT22;6444;49.742;6.114;2022-10-16T16:33:55;20.10;99.90
12761;DHT22;6444;49.742;6.114;2022-10-16T16:36:22;20.20;99.90
12761;DHT22;6444;49.742;6.114;2022-10-16T16:38:49;20.20;99.90
12761;DHT22;6444;49.742;6.114;2022-10-16T16:41:19;19.90;99.90
12761;DHT22;6444;49.742;6.114;2022-10-16T16:43:45;19.90;99.90
12761;DHT22;6444;49.742;6.114;2022-10-16T16:46:11;20.00;99.90
12761;DHT22;6444;49.742;6.114;2022-10-16T16:48:38;20.00;99.90
12761;DHT22;6444;49.742;6.114;2022-10-16T16:51:05;19.50;99.90
12761;DHT22;6444;49.742;6.114;2022-10-16T16:53:33;19.00;99.90
12761;DHT22;6444;49.742;6.114;2022-10-16T16:56:00;19.10;99.90
12761;DHT22;6444;49.742;6.114;2022-10-16T16:58:24;19.50;99.90
12761;DHT22;6444;49.742;6.114;2022-10-16T17:00:52;19.80;99.90
12761;DHT22;6444;49.742;6.114;2022-10-16T17:03:19;19.70;99.90
12761;DHT22;6444;49.742;6.114;2022-10-16T17:05:54;19.70;99.90
12761;DHT22;6444;49.742;6.114;2022-10-16T17:08:12;19.30;99.90
12761;DHT22;6444;49.742;6.114;2022-10-16T17:10:44;19.50;99.90
12761;DHT22;6444;49.742;6.114;2022-10-16T17:13:11;19.60;99.90
12761;DHT22;6444;49.742;6.114;2022-10-16T17:15:45;19.50;99.90
12761;DHT22;6444;49.742;6.114;2022-10-16T17:18:08;19.40;99.90
12761;DHT22;6444;49.742;6.114;2022-10-16T17:20:35;18.80;99.90
12761;DHT22;6444;49.742;6.114;2022-10-16T17:22:58;18.80;99.90
12761;DHT22;6444;49.742;6.114;2022-10-16T17:25:26;18.80;99.90
12761;DHT22;6444;49.742;6.114;2022-10-16T17:27:52;18.80;99.90
12761;DHT22;6444;49.742;6.114;2022-10-16T17:30:19;18.70;99.90
12761;DHT22;6444;49.742;6.114;2022-10-16T17:32:46;18.80;99.90